createdAt,value
2022-11-26T00:02:20.464Z,2.97
2022-11-26T00:04:49.559Z,3.55
2022-11-26T00:07:22.725Z,3.05
2022-11-26T00:09:53.572Z,4.13
2022-11-26T00:12:24.502Z,2.75
2022-11-26T00:14:54.052Z,4.20
2022-11-26T00:17:23.791Z,3.47
2022-11-26T00:19:52.669Z,4.35
2022-11-26T00:22:25.949Z,3.00
2022-11-26T00:24:56.966Z,4.22
2022-11-26T00:27:29.407Z,2.33
2022-11-26T00:29:58.372Z,3.53
2022-11-26T00:32:28.371Z,4.10
2022-11-26T00:34:58.819Z,3.65
2022-11-26T00:37:30.048Z,3.45
2022-11-26T00:40:00.599Z,3.10
2022-11-26T00:42:29.550Z,4.00
2022-11-26T00:44:58.674Z,3.35
2022-11-26T00:47:28.006Z,2.45
2022-11-26T00:49:56.951Z,3.50
2022-11-26T00:52:30.372Z,3.78
2022-11-26T00:55:01.052Z,2.88
2022-11-26T00:57:30.136Z,4.05
2022-11-26T00:59:59.255Z,3.30
2022-11-26T01:02:28.145Z,5.30
2022-11-26T01:05:01.113Z,3.60
2022-11-26T01:07:30.092Z,5.15
2022-11-26T01:10:00.656Z,4.70
2022-11-26T01:12:29.931Z,4.10
2022-11-26T01:14:59.686Z,4.53
2022-11-26T01:17:28.899Z,5.05
2022-11-26T01:19:57.842Z,4.30
2022-11-26T01:22:27.092Z,3.92
2022-11-26T01:24:56.016Z,4.57
2022-11-26T01:27:26.264Z,5.20
2022-11-26T01:29:56.036Z,5.93
2022-11-26T01:32:29.272Z,5.30
2022-11-26T01:34:58.813Z,5.10
2022-11-26T01:37:27.884Z,4.95
2022-11-26T01:39:57.128Z,5.50
2022-11-26T01:42:39.320Z,5.50
2022-11-26T01:45:17.953Z,4.47
2022-11-26T01:47:48.980Z,4.53
2022-11-26T01:51:00.174Z,4.80
2022-11-26T01:53:34.184Z,5.50
2022-11-26T01:56:07.716Z,6.43
2022-11-26T01:58:43.138Z,5.10
2022-11-26T02:01:14.057Z,4.95
2022-11-26T02:03:50.283Z,5.10
2022-11-26T02:06:24.080Z,5.75
2022-11-26T02:08:53.417Z,4.60
2022-11-26T02:13:59.210Z,6.20
2022-11-26T02:16:52.186Z,5.93
2022-11-26T02:19:57.746Z,5.40
2022-11-26T02:22:57.116Z,5.13
2022-11-26T02:25:39.037Z,7.00
2022-11-26T02:28:40.866Z,6.22
2022-11-26T02:31:14.984Z,5.50
2022-11-26T02:33:51.094Z,4.88
2022-11-26T02:36:26.193Z,5.55
2022-11-26T02:38:55.069Z,5.85
2022-11-26T02:41:25.321Z,4.95
2022-11-26T02:43:54.281Z,5.90
2022-11-26T02:46:24.996Z,4.65
2022-11-26T02:48:54.962Z,5.25
2022-11-26T02:51:31.950Z,4.68
2022-11-26T02:54:04.516Z,4.50
2022-11-26T02:56:33.562Z,5.45
2022-11-26T02:59:02.633Z,6.53
2022-11-26T03:01:40.128Z,4.53
2022-11-26T03:04:13.238Z,4.43
2022-11-26T03:12:37.824Z,6.53
2022-11-26T03:15:08.726Z,4.57
2022-11-26T03:17:40.444Z,4.63
2022-11-26T03:20:10.783Z,2.22
2022-11-26T03:22:41.339Z,7.25
2022-11-26T03:25:12.085Z,6.07
2022-11-26T03:27:41.305Z,5.35
2022-11-26T03:30:11.663Z,4.53
2022-11-26T03:32:43.120Z,5.55
2022-11-26T03:35:15.031Z,6.53
2022-11-26T03:37:45.504Z,8.05
2022-11-26T03:40:17.763Z,10.65
2022-11-26T03:42:47.894Z,9.48
2022-11-26T03:45:17.997Z,7.60
2022-11-26T03:47:49.118Z,8.90
2022-11-26T03:50:18.956Z,6.07
2022-11-26T03:52:49.279Z,7.45
2022-11-26T03:55:21.846Z,6.55
2022-11-26T03:57:51.867Z,4.57
2022-11-26T04:00:23.889Z,5.25
2022-11-26T04:02:56.997Z,3.88
2022-11-26T04:05:33.075Z,4.30
2022-11-26T04:08:03.621Z,4.70
2022-11-26T04:10:35.752Z,4.53
2022-11-26T04:13:08.604Z,3.28
2022-11-26T04:15:50.612Z,3.38
2022-11-26T04:18:30.108Z,3.72
2022-11-26T04:21:00.128Z,4.15
2022-11-26T04:23:30.977Z,3.35
2022-11-26T04:26:00.483Z,4.15
2022-11-26T04:28:35.883Z,2.72
2022-11-26T04:41:07.613Z,3.88
2022-11-26T04:43:50.491Z,3.67
2022-11-26T04:49:26.390Z,3.33
2022-11-26T04:51:56.613Z,4.25
2022-11-26T04:54:27.990Z,3.97
2022-11-26T04:56:59.376Z,4.07
2022-11-26T04:59:31.821Z,3.47
2022-11-26T05:02:03.917Z,3.38
2022-11-26T05:04:33.527Z,4.45
2022-11-26T05:07:03.994Z,4.18
2022-11-26T05:09:34.686Z,5.00
2022-11-26T05:12:10.755Z,3.40
2022-11-26T05:14:43.789Z,4.57
2022-11-26T05:17:13.736Z,4.45
2022-11-26T05:19:45.707Z,3.08
2022-11-26T05:22:15.596Z,4.35
2022-11-26T05:24:47.844Z,3.30
2022-11-26T05:27:17.565Z,3.97
2022-11-26T05:29:48.978Z,4.28
2022-11-26T05:32:19.387Z,3.90
2022-11-26T05:34:48.580Z,4.35
2022-11-26T05:37:18.717Z,4.55
2022-11-26T05:39:49.135Z,3.67
2022-11-26T05:42:19.501Z,3.25
2022-11-26T05:44:50.952Z,4.03
2022-11-26T05:47:20.685Z,3.15
2022-11-26T05:49:50.644Z,4.45
2022-11-26T05:52:24.320Z,3.92
2022-11-26T05:54:54.062Z,3.30
2022-11-26T05:57:25.429Z,4.47
2022-11-26T05:59:56.635Z,4.03
2022-11-26T06:02:26.833Z,2.78
2022-11-26T06:04:56.574Z,3.05
2022-11-26T06:09:57.519Z,4.22
2022-11-26T06:12:26.816Z,4.18
2022-11-26T06:14:59.955Z,4.25
2022-11-26T06:17:30.247Z,3.30
2022-11-26T06:20:00.503Z,5.32
2022-11-26T06:22:31.143Z,4.38
2022-11-26T06:27:35.377Z,4.10
2022-11-26T06:30:13.183Z,4.03
2022-11-26T06:32:46.685Z,3.78
2022-11-26T06:35:16.363Z,4.20
2022-11-26T06:37:50.375Z,4.05
2022-11-26T06:40:22.587Z,3.15
2022-11-26T06:42:54.690Z,3.95
2022-11-26T06:45:31.556Z,3.97
2022-11-26T06:48:01.720Z,3.50
2022-11-26T06:50:32.247Z,3.72
2022-11-26T06:53:02.246Z,5.75
2022-11-26T06:55:32.078Z,4.22
2022-11-26T06:58:02.111Z,4.85
2022-11-26T07:00:33.898Z,6.20
2022-11-26T07:03:03.610Z,6.45
2022-11-26T07:05:36.879Z,6.00
2022-11-26T07:08:10.018Z,5.32
2022-11-26T07:10:50.708Z,5.30
2022-11-26T07:16:17.081Z,7.38
2022-11-26T07:18:50.268Z,7.00
2022-11-26T07:21:20.550Z,6.13
2022-11-26T07:23:52.808Z,7.60
2022-11-26T07:26:23.760Z,7.22
2022-11-26T07:28:53.527Z,8.68
2022-11-26T07:31:25.267Z,6.88
2022-11-26T07:33:58.370Z,6.93
2022-11-26T07:36:30.935Z,7.22
2022-11-26T07:39:01.448Z,6.65
2022-11-26T07:41:31.772Z,8.10
2022-11-26T07:46:31.133Z,8.75
2022-11-26T07:49:00.106Z,7.38
2022-11-26T07:51:30.419Z,8.55
2022-11-26T07:54:01.362Z,7.90
2022-11-26T07:56:30.352Z,8.32
2022-11-26T07:58:59.460Z,8.00
2022-11-26T08:01:30.098Z,5.80
2022-11-26T08:04:02.624Z,6.95
2022-11-26T08:06:33.371Z,7.15
2022-11-26T08:09:03.900Z,4.65
2022-11-26T08:11:39.188Z,5.25
2022-11-26T08:14:10.694Z,6.95
2022-11-26T08:16:39.894Z,5.13
2022-11-26T08:19:14.846Z,6.13
2022-11-26T08:21:44.141Z,9.73
2022-11-26T08:24:18.222Z,11.43
2022-11-26T08:26:48.118Z,10.55
2022-11-26T08:32:14.741Z,9.30
2022-11-26T08:34:45.054Z,7.95
2022-11-26T08:37:14.065Z,8.43
2022-11-26T09:33:09.132Z,7.40
2022-11-26T09:35:38.731Z,9.18
2022-11-26T09:56:37.903Z,10.18
2022-11-26T09:59:29.747Z,11.23
2022-11-26T10:41:53.463Z,6.75
2022-11-26T12:33:36.285Z,13.27
2022-11-26T12:36:13.940Z,4.00
2022-11-26T12:38:48.009Z,5.22
2022-11-26T12:41:21.299Z,4.18
2022-11-26T15:47:04.777Z,12.68
2022-11-26T15:49:36.693Z,11.20
2022-11-26T15:52:16.368Z,9.10
2022-11-26T15:55:12.001Z,10.65
2022-11-26T15:57:43.698Z,12.43
2022-11-26T16:00:46.815Z,7.97
2022-11-26T16:03:47.134Z,10.63
2022-11-26T16:06:29.993Z,12.68
2022-11-26T16:09:08.832Z,8.40
2022-11-26T16:11:45.573Z,10.38
2022-11-26T16:16:53.241Z,11.82
2022-11-26T16:19:24.074Z,11.45
2022-11-26T16:21:54.986Z,13.10
2022-11-26T16:24:31.535Z,12.32
2022-11-26T16:27:02.512Z,14.93
2022-11-26T16:29:31.858Z,12.23
2022-11-26T16:32:00.813Z,13.40
2022-11-26T16:34:31.197Z,10.82
2022-11-26T16:37:04.198Z,11.07
2022-11-26T16:39:39.117Z,10.48
2022-11-26T16:42:15.824Z,10.02
2022-11-26T16:44:44.657Z,10.75
2022-11-26T16:47:21.619Z,10.32
2022-11-26T16:49:51.937Z,9.00
2022-11-26T16:52:21.701Z,9.85
2022-11-26T16:54:50.696Z,8.48
2022-11-26T16:57:21.689Z,9.52
2022-11-26T16:59:52.953Z,7.03
2022-11-26T17:02:24.075Z,11.40
2022-11-26T17:04:55.780Z,12.20
2022-11-26T17:07:30.758Z,10.13
2022-11-26T17:09:59.591Z,5.35
2022-11-26T17:12:28.378Z,6.60
2022-11-26T17:14:57.070Z,8.75
2022-11-26T17:17:29.752Z,7.82
2022-11-26T17:20:00.122Z,8.40
2022-11-26T17:22:28.969Z,11.45
2022-11-26T17:24:57.561Z,12.27
2022-11-26T17:27:27.987Z,9.15
2022-11-26T17:29:56.763Z,9.85
2022-11-26T17:32:25.373Z,10.57
2022-11-26T17:34:54.967Z,10.27
2022-11-26T17:37:27.925Z,10.38
2022-11-26T17:39:58.098Z,11.90
2022-11-26T17:42:31.089Z,11.77
2022-11-26T17:45:03.960Z,11.48
2022-11-26T17:47:33.097Z,7.90
2022-11-26T17:50:01.797Z,10.93
2022-11-26T17:52:32.170Z,10.48
2022-11-26T17:55:00.797Z,9.45
2022-11-26T17:57:29.857Z,8.95
2022-11-26T17:59:58.514Z,9.65
2022-11-26T18:02:27.177Z,9.20
2022-11-26T18:04:55.965Z,7.43
2022-11-26T18:07:25.281Z,10.40
2022-11-26T18:09:57.442Z,8.40
2022-11-26T18:12:28.099Z,8.82
2022-11-26T18:14:58.774Z,9.10
2022-11-26T18:17:27.594Z,8.55
2022-11-26T18:19:56.810Z,9.00
2022-11-26T18:22:27.213Z,9.75
2022-11-26T18:24:58.457Z,9.18
2022-11-26T18:27:28.653Z,7.03
2022-11-26T18:29:57.510Z,6.38
2022-11-26T18:32:26.252Z,8.63
2022-11-26T18:34:55.246Z,9.48
2022-11-26T18:37:23.971Z,7.90
2022-11-26T18:39:52.617Z,8.50
2022-11-26T18:42:36.709Z,7.75
2022-11-26T18:45:08.117Z,6.95
2022-11-26T18:47:37.878Z,7.60
2022-11-26T18:50:08.295Z,8.13
2022-11-26T18:52:37.267Z,6.80
2022-11-26T18:55:08.359Z,8.27
2022-11-26T18:57:38.773Z,6.50
2022-11-26T19:00:09.227Z,7.70
2022-11-26T19:02:38.455Z,8.70
2022-11-26T19:05:08.666Z,8.98
2022-11-26T19:07:38.947Z,9.10
2022-11-26T19:10:09.287Z,6.88
2022-11-26T19:12:40.266Z,6.40
2022-11-26T19:15:09.832Z,7.13
2022-11-26T19:17:40.497Z,7.38
2022-11-26T19:20:10.096Z,7.00
2022-11-26T19:22:41.382Z,8.65
2022-11-26T19:25:13.148Z,8.20
2022-11-26T19:27:45.012Z,8.02
2022-11-26T19:30:20.101Z,8.68
2022-11-26T22:19:57.113Z,6.65
2022-11-26T22:22:27.046Z,6.07
2022-11-26T22:24:56.394Z,7.55
2022-11-26T22:27:29.060Z,5.70
2022-11-26T22:30:00.896Z,5.85
2022-11-26T22:32:29.629Z,6.93
2022-11-26T22:35:00.384Z,5.22
2022-11-26T22:37:29.348Z,6.07
2022-11-26T22:40:02.288Z,5.68
2022-11-26T22:42:33.809Z,5.25
2022-11-26T22:45:03.376Z,4.97
2022-11-26T22:47:33.158Z,5.35
2022-11-26T22:50:03.437Z,4.40
2022-11-26T22:52:35.521Z,6.97
2022-11-26T22:55:07.534Z,5.32
2022-11-26T22:57:36.555Z,4.53
2022-11-26T23:00:09.898Z,4.45
2022-11-26T23:02:38.898Z,4.85
2022-11-26T23:05:12.884Z,5.38
2022-11-26T23:07:46.259Z,4.57
2022-11-26T23:10:18.580Z,5.97
2022-11-26T23:12:49.021Z,5.25
2022-11-26T23:15:18.375Z,5.97
